Time;durP1;ratioP1;P1;durP2;ratioP2;P2;SDS_P1;SDS_P2;PMS_P1;PMS_P2;Temp;Humidity;BMP_temperature;BMP_pressure;BME280_temperature;BME280_humidity;BME280_pressure;Samples;Min_cycle;Max_cycle;Signal;HPM_P1;HPM_P2
2022/10/03 00:01:44;;;;;;;18.95;3.17;;;;;;;;;;5093715;28;20494;-75
2022/10/03 00:04:48;;;;;;;20.63;3.78;;;;;;;;;;5093270;28;20515;-73
2022/10/03 00:07:53;;;;;;;18.00;4.05;;;;;;;;;;5093215;28;20404;-74
2022/10/03 00:11:13;;;;;;;16.70;4.28;;;;;;;;;;5093679;28;20043;-75
2022/10/03 00:14:37;;;;;;;21.15;3.65;;;;;;;;;;5093039;28;20047;-75
2022/10/03 00:17:50;;;;;;;24.60;5.10;;;;;;;;;;5093761;28;20050;-75
2022/10/03 00:21:00;;;;;;;18.45;4.30;;;;;;;;;;5092645;28;20058;-75
2022/10/03 00:24:20;;;;;;;25.23;4.65;;;;;;;;;;5093105;28;20043;-75
2022/10/03 00:27:47;;;;;;;21.38;4.80;;;;;;;;;;5092798;28;20055;-74
2022/10/03 00:30:54;;;;;;;24.20;4.93;;;;;;;;;;5092489;28;20062;-75
2022/10/03 00:34:18;;;;;;;24.60;3.95;;;;;;;;;;5092722;28;20394;-74
2022/10/03 00:37:43;;;;;;;21.88;3.85;;;;;;;;;;5093208;28;20055;-75
2022/10/03 00:40:59;;;;;;;19.27;4.38;;;;;;;;;;5092773;28;20043;-74
2022/10/03 00:44:19;;;;;;;20.90;3.95;;;;;;;;;;5092777;28;20063;-75
2022/10/03 00:47:31;;;;;;;22.40;3.55;;;;;;;;;;5093284;28;20498;-76
2022/10/03 00:50:35;;;;;;;21.92;3.22;;;;;;;;;;5091908;28;20503;-75
2022/10/03 00:53:55;;;;;;;19.80;3.55;;;;;;;;;;5093120;28;20046;-74
2022/10/03 00:57:03;;;;;;;16.27;3.25;;;;;;;;;;5092895;28;20387;-75
2022/10/03 01:00:42;;;;;;;19.75;3.90;;;;;;;;;;5092852;28;20055;-74
2022/10/03 01:03:53;;;;;;;35.13;5.32;;;;;;;;;;5090303;28;20432;-74
2022/10/03 01:06:58;;;;;;;;;;;;;;;;;;5093468;28;20043;-75
2022/10/03 01:10:05;;;;;;;21.08;3.50;;;;;;;;;;5092798;28;19915;-76
2022/10/03 01:13:31;;;;;;;18.52;4.38;;;;;;;;;;5092477;28;20042;-75
2022/10/03 01:16:36;;;;;;;18.13;3.20;;;;;;;;;;5092514;28;20059;-75
2022/10/03 01:19:45;;;;;;;17.52;3.38;;;;;;;;;;5093226;28;20055;-76
2022/10/03 01:22:50;;;;;;;13.32;3.45;;;;;;;;;;5068541;28;20039;-75
2022/10/03 01:25:58;;;;;;;18.17;3.75;;;;;;;;;;5080116;28;20190;-75
2022/10/03 01:32:44;;;;;;;13.68;3.15;;;;;;;;;;5092296;28;20047;-75
2022/10/03 01:35:48;;;;;;;19.60;3.95;;;;;;;;;;5092124;28;20595;-75
2022/10/03 01:38:56;;;;;;;19.63;4.18;;;;;;;;;;5091726;28;20047;-74
2022/10/03 01:42:39;;;;;;;17.77;3.63;;;;;;;;;;5091929;28;20043;-74
2022/10/03 01:46:02;;;;;;;15.68;3.70;;;;;;;;;;5078140;28;20047;-74
2022/10/03 01:49:20;;;;;;;14.43;3.45;;;;;;;;;;5089846;28;20051;-75
2022/10/03 01:52:43;;;;;;;17.73;3.70;;;;;;;;;;5092853;28;20047;-75
2022/10/03 01:55:59;;;;;;;19.65;4.47;;;;;;;;;;5091094;28;20514;-75
2022/10/03 01:59:28;;;;;;;15.38;2.97;;;;;;;;;;5091656;28;20047;-74
2022/10/03 02:02:45;;;;;;;21.80;3.60;;;;;;;;;;5091971;28;20035;-75
2022/10/03 02:06:08;;;;;;;16.17;3.22;;;;;;;;;;5091860;28;20031;-76
2022/10/03 02:09:31;;;;;;;23.60;4.05;;;;;;;;;;5081531;28;20055;-76
2022/10/03 02:12:40;;;;;;;13.40;3.47;;;;;;;;;;5095911;28;20055;-74
2022/10/03 02:16:02;;;;;;;20.75;3.60;;;;;;;;;;5095881;28;20039;-75
2022/10/03 02:19:13;;;;;;;16.15;3.53;;;;;;;;;;5095524;28;20043;-75
2022/10/03 02:22:29;;;;;;;16.93;3.43;;;;;;;;;;5095711;28;20154;-75
2022/10/03 02:25:52;;;;;;;14.45;3.60;;;;;;;;;;5095638;28;20031;-76
2022/10/03 02:28:59;;;;;;;14.77;3.47;;;;;;;;;;5095120;28;20070;-74
2022/10/03 02:32:16;;;;;;;16.05;3.58;;;;;;;;;;5095392;28;20055;-74
2022/10/03 02:35:27;;;;;;;13.00;3.63;;;;;;;;;;5095252;28;20039;-75
2022/10/03 02:38:50;;;;;;;14.45;2.78;;;;;;;;;;5094800;28;20491;-75
2022/10/03 02:42:14;;;;;;;13.13;3.30;;;;;;;;;;5095500;28;20050;-75
2022/10/03 02:45:37;;;;;;;13.73;3.88;;;;;;;;;;5095362;28;20043;-76
2022/10/03 02:48:47;;;;;;;15.88;3.45;;;;;;;;;;5094609;28;20039;-74
2022/10/03 02:51:55;;;;;;;15.93;3.80;;;;;;;;;;5093956;28;20043;-75
2022/10/03 02:55:22;;;;;;;15.90;3.63;;;;;;;;;;5094911;28;20073;-74
2022/10/03 02:58:45;;;;;;;17.10;4.05;;;;;;;;;;5094019;28;20039;-75
2022/10/03 03:01:50;;;;;;;16.95;3.75;;;;;;;;;;5093965;28;20538;-75
2022/10/03 03:04:55;;;;;;;15.45;3.95;;;;;;;;;;5094082;28;20047;-75
2022/10/03 03:08:08;;;;;;;16.08;3.38;;;;;;;;;;5094086;28;20380;-74
2022/10/03 03:11:32;;;;;;;14.98;3.20;;;;;;;;;;5081129;28;20035;-75
2022/10/03 03:14:39;;;;;;;14.43;4.18;;;;;;;;;;5093580;28;20078;-75
2022/10/03 03:17:49;;;;;;;13.02;3.83;;;;;;;;;;5069407;28;20051;-76
2022/10/03 03:21:02;;;;;;;18.20;3.58;;;;;;;;;;5092058;28;20613;-75
2022/10/03 03:24:27;;;;;;;15.13;3.10;;;;;;;;;;5093543;28;20047;-75
2022/10/03 03:27:31;;;;;;;17.17;3.80;;;;;;;;;;5093058;28;20395;-75
2022/10/03 03:30:44;;;;;;;14.80;3.25;;;;;;;;;;5093311;28;20110;-75
2022/10/03 03:34:07;;;;;;;19.13;3.83;;;;;;;;;;5093061;28;20526;-75
2022/10/03 03:37:18;;;;;;;14.57;4.05;;;;;;;;;;5093480;28;20502;-74
2022/10/03 03:40:23;;;;;;;13.23;3.03;;;;;;;;;;5093076;28;20503;-74
2022/10/03 03:43:36;;;;;;;14.68;4.05;;;;;;;;;;5093185;28;20442;-75
2022/10/03 03:46:40;;;;;;;20.23;4.13;;;;;;;;;;5093121;28;20503;-75
2022/10/03 03:49:51;;;;;;;15.52;4.38;;;;;;;;;;5092967;28;20039;-75
2022/10/03 03:53:13;;;;;;;12.47;2.70;;;;;;;;;;5092315;28;20047;-75
2022/10/03 03:56:27;;;;;;;19.30;3.92;;;;;;;;;;5093089;28;20059;-76
2022/10/03 03:59:50;;;;;;;25.50;4.50;;;;;;;;;;5092555;28;20403;-76
2022/10/03 04:03:08;;;;;;;19.70;4.22;;;;;;;;;;5092932;28;20387;-74
2022/10/03 04:06:25;;;;;;;15.63;3.42;;;;;;;;;;5093137;28;20047;-75
2022/10/03 04:09:48;;;;;;;16.75;3.63;;;;;;;;;;5098213;28;20043;-75
2022/10/03 04:12:56;;;;;;;25.42;4.32;;;;;;;;;;5092363;28;20420;-75
2022/10/03 04:16:16;;;;;;;21.73;4.88;;;;;;;;;;5092450;28;20043;-76
2022/10/03 04:19:32;;;;;;;22.08;4.05;;;;;;;;;;5092521;28;20051;-76
2022/10/03 04:22:42;;;;;;;28.45;5.15;;;;;;;;;;5092649;28;20055;-76
2022/10/03 04:26:01;;;;;;;17.10;4.18;;;;;;;;;;5092049;28;20047;-76
2022/10/03 04:29:24;;;;;;;20.08;3.78;;;;;;;;;;5092004;28;20055;-75
2022/10/03 04:32:37;;;;;;;19.42;3.35;;;;;;;;;;5092062;28;20511;-75
2022/10/03 04:35:47;;;;;;;20.58;4.43;;;;;;;;;;5091896;28;20420;-77
2022/10/03 04:39:16;;;;;;;20.08;3.45;;;;;;;;;;5091744;28;20042;-76
2022/10/03 04:42:25;;;;;;;18.85;3.33;;;;;;;;;;5092094;28;20436;-75
2022/10/03 04:45:38;;;;;;;23.27;3.40;;;;;;;;;;5091658;28;20042;-76
2022/10/03 04:48:42;;;;;;;17.17;3.60;;;;;;;;;;5091817;28;20038;-76
2022/10/03 04:51:59;;;;;;;12.38;4.00;;;;;;;;;;5091914;28;20424;-76
2022/10/03 04:55:13;;;;;;;15.50;5.28;;;;;;;;;;5091978;28;20110;-74
2022/10/03 04:58:38;;;;;;;36.03;16.15;;;;;;;;;;5091823;28;20055;-77
2022/10/03 05:01:47;;;;;;;23.38;7.93;;;;;;;;;;5091068;28;20063;-75
2022/10/03 05:04:59;;;;;;;13.40;4.03;;;;;;;;;;5091438;28;20043;-75
2022/10/03 05:08:06;;;;;;;16.80;4.57;;;;;;;;;;5091074;28;20044;-75
2022/10/03 05:11:15;;;;;;;22.67;3.92;;;;;;;;;;5091281;28;20043;-75
2022/10/03 05:14:40;;;;;;;13.77;3.55;;;;;;;;;;5091278;28;20043;-74
2022/10/03 05:17:59;;;;;;;16.58;3.50;;;;;;;;;;5090528;28;20043;-78
2022/10/03 05:21:09;;;;;;;19.63;3.42;;;;;;;;;;5090217;28;20380;-77
2022/10/03 05:24:33;;;;;;;17.00;3.83;;;;;;;;;;5091603;28;20039;-77
2022/10/03 05:27:58;;;;;;;16.60;3.42;;;;;;;;;;5091090;28;20047;-78
2022/10/03 05:31:06;;;;;;;15.57;5.07;;;;;;;;;;5092440;28;20070;-77
2022/10/03 05:34:23;;;;;;;24.40;5.13;;;;;;;;;;5090970;28;20449;-78
2022/10/03 05:37:55;;;;;;;19.23;3.72;;;;;;;;;;5091169;28;20427;-76
2022/10/03 05:41:00;;;;;;;14.20;4.07;;;;;;;;;;5090984;28;20051;-77
2022/10/03 05:44:09;;;;;;;15.23;3.65;;;;;;;;;;5090108;28;20035;-78
2022/10/03 05:50:57;;;;;;;12.82;4.07;;;;;;;;;;5091479;28;20043;-78
2022/10/03 05:54:04;;;;;;;20.23;4.80;;;;;;;;;;5091035;28;20047;-78
2022/10/03 05:57:26;;;;;;;15.93;3.97;;;;;;;;;;5090100;28;20039;-76
2022/10/03 06:00:39;;;;;;;15.18;4.38;;;;;;;;;;5090678;28;20051;-76
2022/10/03 06:03:49;;;;;;;10.65;3.92;;;;;;;;;;5090933;28;20043;-77
2022/10/03 06:07:07;;;;;;;25.25;4.38;;;;;;;;;;5090659;28;20051;-75
2022/10/03 06:10:18;;;;;;;12.38;4.10;;;;;;;;;;5090944;28;20467;-76
2022/10/03 06:13:22;;;;;;;12.25;3.70;;;;;;;;;;5091198;28;20055;-72
2022/10/03 06:16:39;;;;;;;15.07;3.53;;;;;;;;;;5090336;28;20051;-71
2022/10/03 06:19:44;;;;;;;12.07;3.22;;;;;;;;;;5090619;28;20051;-71
2022/10/03 06:23:07;;;;;;;13.48;3.45;;;;;;;;;;5090696;28;20391;-76
2022/10/03 06:26:30;;;;;;;10.90;3.20;;;;;;;;;;5090514;28;20051;-72
2022/10/03 06:29:54;;;;;;;13.75;3.47;;;;;;;;;;5090366;28;20051;-74
2022/10/03 06:32:59;;;;;;;12.15;3.55;;;;;;;;;;5090448;28;20043;-72
2022/10/03 06:36:03;;;;;;;8.00;2.83;;;;;;;;;;5090756;28;20051;-73
2022/10/03 06:39:26;;;;;;;14.70;3.40;;;;;;;;;;5090535;28;20036;-71
2022/10/03 06:42:53;;;;;;;12.65;4.07;;;;;;;;;;5090574;28;20051;-75
2022/10/03 06:46:18;;;;;;;16.95;4.75;;;;;;;;;;5090243;28;20051;-73
2022/10/03 06:49:42;;;;;;;17.05;4.90;;;;;;;;;;5089393;28;20039;-74
2022/10/03 06:53:13;;;;;;;15.60;4.82;;;;;;;;;;5090814;28;20043;-79
2022/10/03 06:56:37;;;;;;;21.70;5.50;;;;;;;;;;5094371;28;20043;-72
2022/10/03 07:00:00;;;;;;;19.83;5.18;;;;;;;;;;5094080;28;20047;-75
2022/10/03 07:03:29;;;;;;;17.52;5.13;;;;;;;;;;5093905;28;20051;-81
2022/10/03 07:06:52;;;;;;;15.80;4.95;;;;;;;;;;5094046;28;20043;-78
2022/10/03 07:10:15;;;;;;;14.02;4.18;;;;;;;;;;5094316;28;20525;-76
2022/10/03 07:13:44;;;;;;;14.52;4.10;;;;;;;;;;5093986;28;20479;-74
2022/10/03 07:17:07;;;;;;;13.45;2.97;;;;;;;;;;5094039;28;20499;-74
2022/10/03 07:20:30;;;;;;;14.70;3.50;;;;;;;;;;5093489;28;20063;-78
2022/10/03 07:23:41;;;;;;;18.30;3.85;;;;;;;;;;5093451;28;20482;-75
2022/10/03 07:26:48;;;;;;;17.83;2.65;;;;;;;;;;5093534;28;20400;-78
2022/10/03 07:29:56;;;;;;;13.70;2.80;;;;;;;;;;5093755;28;20055;-78
2022/10/03 07:33:07;;;;;;;11.30;2.30;;;;;;;;;;5092869;28;20051;-80
2022/10/03 07:40:07;;;;;;;16.02;3.15;;;;;;;;;;5093587;28;20309;-83
2022/10/03 07:43:25;;;;;;;11.88;2.65;;;;;;;;;;5093522;28;20051;-76
2022/10/03 07:46:49;;;;;;;19.38;3.65;;;;;;;;;;5093181;28;20039;-73
2022/10/03 07:50:00;;;;;;;18.85;3.75;;;;;;;;;;5092953;28;20043;-78
2022/10/03 07:53:14;;;;;;;14.00;2.53;;;;;;;;;;5092967;28;20122;-79
2022/10/03 07:56:28;;;;;;;38.83;4.47;;;;;;;;;;5092657;28;20506;-71
2022/10/03 07:59:32;;;;;;;14.15;3.72;;;;;;;;;;5092857;28;20051;-75
2022/10/03 08:02:43;;;;;;;23.02;3.42;;;;;;;;;;5092897;28;20051;-75
2022/10/03 08:06:02;;;;;;;19.40;3.95;;;;;;;;;;5092073;28;20043;-74
2022/10/03 08:09:28;;;;;;;8.38;1.95;;;;;;;;;;5092835;28;20043;-77
2022/10/03 08:13:05;;;;;;;15.25;2.65;;;;;;;;;;5092735;28;20036;-74
2022/10/03 08:16:09;;;;;;;18.35;3.38;;;;;;;;;;5085472;28;20043;-69
2022/10/03 08:19:24;;;;;;;26.08;4.00;;;;;;;;;;5091602;28;20043;-76
2022/10/03 08:22:38;;;;;;;15.48;2.90;;;;;;;;;;5092541;28;20404;-72
2022/10/03 08:25:43;;;;;;;22.25;3.28;;;;;;;;;;5092405;28;20043;-70
2022/10/03 08:29:00;;;;;;;22.05;3.40;;;;;;;;;;5091887;28;20051;-71
2022/10/03 08:32:35;;;;;;;18.73;2.75;;;;;;;;;;5091106;28;20400;-76
2022/10/03 08:36:15;;;;;;;16.10;3.42;;;;;;;;;;5091987;28;20051;-78
2022/10/03 08:39:38;;;;;;;14.15;3.30;;;;;;;;;;5090097;28;20051;-76
2022/10/03 08:42:49;;;;;;;15.18;2.72;;;;;;;;;;5091446;28;20043;-78
2022/10/03 08:46:08;;;;;;;17.00;2.90;;;;;;;;;;5092307;28;20439;-77
2022/10/03 08:49:32;;;;;;;9.88;2.33;;;;;;;;;;5091896;28;20055;-78
2022/10/03 08:52:57;;;;;;;23.42;3.38;;;;;;;;;;5091959;28;20035;-76
2022/10/03 08:56:06;;;;;;;11.80;2.63;;;;;;;;;;5091090;28;20118;-78
2022/10/03 08:59:13;;;;;;;10.32;4.00;;;;;;;;;;5091756;28;20043;-78
2022/10/03 09:02:18;;;;;;;15.23;3.25;;;;;;;;;;5091803;28;20051;-77
2022/10/03 09:05:25;;;;;;;15.60;2.78;;;;;;;;;;5091483;28;20308;-79
2022/10/03 09:08:48;;;;;;;9.52;2.55;;;;;;;;;;5091350;28;20426;-77
2022/10/03 09:12:19;;;;;;;9.75;2.35;;;;;;;;;;5090733;28;20182;-77
2022/10/03 09:15:29;;;;;;;8.90;2.03;;;;;;;;;;5087987;28;20032;-78
2022/10/03 09:18:33;;;;;;;10.75;2.22;;;;;;;;;;5091592;28;20036;-78
2022/10/03 09:21:47;;;;;;;11.98;2.33;;;;;;;;;;5091236;28;20059;-81
2022/10/03 09:24:54;;;;;;;10.55;2.10;;;;;;;;;;5091322;28;20507;-79
2022/10/03 09:28:11;;;;;;;7.80;2.63;;;;;;;;;;5090946;28;20399;-75
2022/10/03 09:31:18;;;;;;;8.32;2.17;;;;;;;;;;5090563;28;20036;-73
2022/10/03 09:34:54;;;;;;;11.48;1.80;;;;;;;;;;5091741;28;20036;-75
2022/10/03 09:38:17;;;;;;;7.03;1.98;;;;;;;;;;5090125;28;20043;-81
2022/10/03 09:41:21;;;;;;;48.05;4.95;;;;;;;;;;5090864;28;20048;-78
2022/10/03 09:44:34;;;;;;;12.77;2.40;;;;;;;;;;5091369;28;20491;-75
2022/10/03 09:47:39;;;;;;;13.43;2.88;;;;;;;;;;5091032;28;20051;-73
2022/10/03 09:51:01;;;;;;;12.52;2.35;;;;;;;;;;5091208;28;20047;-72
2022/10/03 09:54:05;;;;;;;14.98;2.83;;;;;;;;;;5090788;28;20043;-74
2022/10/03 09:57:20;;;;;;;9.50;2.53;;;;;;;;;;5091066;28;20396;-74
2022/10/03 10:00:26;;;;;;;10.10;2.30;;;;;;;;;;5090904;28;20052;-75
2022/10/03 10:03:31;;;;;;;13.02;2.42;;;;;;;;;;5090773;28;20062;-75
2022/10/03 10:06:38;;;;;;;12.95;3.10;;;;;;;;;;5090609;28;20043;-79
2022/10/03 10:10:16;;;;;;;10.27;2.35;;;;;;;;;;5091003;28;20114;-76
2022/10/03 10:13:39;;;;;;;12.07;2.03;;;;;;;;;;5090540;28;20044;-83
2022/10/03 10:16:46;;;;;;;10.88;1.80;;;;;;;;;;5090529;28;20055;-73
2022/10/03 10:20:10;;;;;;;10.20;1.80;;;;;;;;;;5090610;28;20039;-78
2022/10/03 10:23:20;;;;;;;6.70;2.03;;;;;;;;;;5091002;28;20048;-82
2022/10/03 10:26:31;;;;;;;8.77;1.95;;;;;;;;;;5091031;28;20044;-81
2022/10/03 10:29:41;;;;;;;15.65;2.25;;;;;;;;;;5092231;28;20040;-80
2022/10/03 10:32:58;;;;;;;12.35;2.10;;;;;;;;;;5094796;28;20416;-81
2022/10/03 10:36:14;;;;;;;9.23;2.17;;;;;;;;;;5093590;28;20407;-80
2022/10/03 10:39:31;;;;;;;15.45;2.83;;;;;;;;;;5094397;28;20036;-75
2022/10/03 10:42:53;;;;;;;10.15;1.98;;;;;;;;;;5094175;28;20051;-84
2022/10/03 10:46:09;;;;;;;8.02;2.38;;;;;;;;;;5094719;28;20057;-84
2022/10/03 10:49:17;;;;;;;4.85;1.73;;;;;;;;;;5094968;28;20032;-79
2022/10/03 10:52:39;;;;;;;4.85;1.40;;;;;;;;;;5093463;28;20032;-77
2022/10/03 10:56:04;;;;;;;5.78;1.52;;;;;;;;;;5094112;28;20036;-81
2022/10/03 10:59:11;;;;;;;7.03;1.98;;;;;;;;;;5094223;28;20044;-80
2022/10/03 11:02:36;;;;;;;6.78;1.90;;;;;;;;;;5093822;28;20052;-83
2022/10/03 11:05:50;;;;;;;11.13;1.35;;;;;;;;;;5093827;28;20040;-83
2022/10/03 11:09:13;;;;;;;7.68;1.80;;;;;;;;;;5094102;28;20106;-81
2022/10/03 11:12:32;;;;;;;8.63;1.60;;;;;;;;;;5092692;28;20036;-84
2022/10/03 11:15:49;;;;;;;8.10;3.15;;;;;;;;;;5094037;28;20044;-83
2022/10/03 11:19:12;;;;;;;5.28;1.30;;;;;;;;;;5094355;28;20044;-82
2022/10/03 11:22:34;;;;;;;5.88;1.63;;;;;;;;;;5093833;28;20043;-83
2022/10/03 11:26:17;;;;;;;7.80;1.58;;;;;;;;;;5093646;28;20032;-84
2022/10/03 11:29:24;;;;;;;8.05;2.15;;;;;;;;;;5091330;28;20544;-82
2022/10/03 11:32:46;;;;;;;11.95;1.50;;;;;;;;;;5093553;28;20032;-84
2022/10/03 11:36:09;;;;;;;3.92;1.17;;;;;;;;;;5093920;28;20039;-82
2022/10/03 11:39:34;;;;;;;8.15;1.30;;;;;;;;;;5093557;28;20369;-87
2022/10/03 11:42:52;;;;;;;3.78;1.40;;;;;;;;;;5092062;28;20048;-85
2022/10/03 11:46:00;;;;;;;7.80;1.25;;;;;;;;;;5093363;28;20044;-84
2022/10/03 11:49:19;;;;;;;6.07;1.38;;;;;;;;;;5093468;28;20032;-80
2022/10/03 11:52:33;;;;;;;3.25;1.00;;;;;;;;;;5093156;28;20032;-86
2022/10/03 11:55:52;;;;;;;5.57;1.30;;;;;;;;;;5094012;28;20453;-85
2022/10/03 11:59:17;;;;;;;1.45;0.90;;;;;;;;;;5092952;28;20040;-84
2022/10/03 12:02:23;;;;;;;3.72;1.02;;;;;;;;;;5092262;28;20040;-83
2022/10/03 12:05:27;;;;;;;4.35;1.00;;;;;;;;;;5092098;28;20040;-87
2022/10/03 12:08:54;;;;;;;12.43;1.42;;;;;;;;;;5093230;28;20036;-82
2022/10/03 12:12:04;;;;;;;3.83;1.20;;;;;;;;;;5092823;28;20049;-87
2022/10/03 12:15:30;;;;;;;5.38;1.52;;;;;;;;;;5092905;28;20484;-87
2022/10/03 12:18:43;;;;;;;6.20;1.40;;;;;;;;;;5092899;28;20028;-85
2022/10/03 12:22:03;;;;;;;5.20;1.20;;;;;;;;;;5092418;28;20040;-85
2022/10/03 12:25:43;;;;;;;8.55;1.58;;;;;;;;;;5092653;28;20036;-80
2022/10/03 12:28:51;;;;;;;5.38;1.17;;;;;;;;;;5089866;28;20502;-74
2022/10/03 12:32:01;;;;;;;5.53;1.27;;;;;;;;;;5092341;28;20036;-77
2022/10/03 12:35:29;;;;;;;3.90;1.35;;;;;;;;;;5092572;28;20039;-83
2022/10/03 12:38:33;;;;;;;6.47;2.25;;;;;;;;;;5092626;28;20032;-77
2022/10/03 12:41:47;;;;;;;7.45;1.35;;;;;;;;;;5092193;28;20048;-87
2022/10/03 12:44:52;;;;;;;4.10;1.17;;;;;;;;;;5092561;28;20036;-78
2022/10/03 12:48:00;;;;;;;4.13;1.17;;;;;;;;;;5091123;28;20044;-80
2022/10/03 12:51:28;;;;;;;5.40;1.30;;;;;;;;;;5092197;28;20048;-80
2022/10/03 12:54:42;;;;;;;3.28;1.00;;;;;;;;;;5091946;28;20040;-77
2022/10/03 12:57:47;;;;;;;5.95;1.13;;;;;;;;;;5091817;28;20377;-73
2022/10/03 13:01:10;;;;;;;6.22;1.10;;;;;;;;;;5091070;28;20048;-88
2022/10/03 13:04:17;;;;;;;8.05;1.40;;;;;;;;;;5092245;28;20040;-82
2022/10/03 13:07:25;;;;;;;6.88;1.63;;;;;;;;;;5091472;28;20040;-75
2022/10/03 13:10:35;;;;;;;3.70;1.33;;;;;;;;;;5091911;28;20028;-77
2022/10/03 13:13:49;;;;;;;5.93;1.23;;;;;;;;;;5091288;28;20040;-78
2022/10/03 13:16:58;;;;;;;3.80;1.30;;;;;;;;;;5091867;28;20029;-77
2022/10/03 13:20:12;;;;;;;15.93;1.30;;;;;;;;;;5091978;28;20028;-81
2022/10/03 13:23:37;;;;;;;4.47;1.30;;;;;;;;;;5091565;28;20044;-75
2022/10/03 13:26:41;;;;;;;4.60;1.15;;;;;;;;;;5092918;28;20032;-79
2022/10/03 13:29:45;;;;;;;4.82;1.10;;;;;;;;;;5090131;28;20150;-79
2022/10/03 13:33:00;;;;;;;4.72;1.13;;;;;;;;;;5091160;28;20044;-80
2022/10/03 13:36:23;;;;;;;7.07;1.30;;;;;;;;;;5090857;28;20044;-76
2022/10/03 13:39:45;;;;;;;8.63;1.05;;;;;;;;;;5091189;28;20397;-76
2022/10/03 13:42:52;;;;;;;2.28;1.13;;;;;;;;;;5091717;28;20040;-77
2022/10/03 13:45:57;;;;;;;6.22;1.10;;;;;;;;;;5091578;28;20044;-83
2022/10/03 13:49:09;;;;;;;7.20;1.05;;;;;;;;;;5091171;28;20481;-80
2022/10/03 13:52:17;;;;;;;4.45;1.15;;;;;;;;;;5091769;28;20036;-81
2022/10/03 13:55:40;;;;;;;7.47;1.25;;;;;;;;;;5091341;28;20039;-76
2022/10/03 13:58:53;;;;;;;7.43;4.18;;;;;;;;;;5090820;28;20491;-78
2022/10/03 14:02:03;;;;;;;6.60;2.40;;;;;;;;;;5090838;28;20048;-81
2022/10/03 14:05:08;;;;;;;7.00;1.60;;;;;;;;;;5093341;28;20040;-80
2022/10/03 14:08:15;;;;;;;4.47;1.08;;;;;;;;;;5094236;28;20040;-76
2022/10/03 14:11:21;;;;;;;2.55;1.35;;;;;;;;;;5094123;28;20028;-73
2022/10/03 14:14:33;;;;;;;6.00;1.67;;;;;;;;;;5095357;28;20040;-76
2022/10/03 14:17:37;;;;;;;6.22;1.13;;;;;;;;;;5094784;28;20036;-77
2022/10/03 14:21:00;;;;;;;4.43;1.05;;;;;;;;;;5094676;28;20044;-75
2022/10/03 14:24:14;;;;;;;2.88;0.98;;;;;;;;;;5094745;28;20036;-75
2022/10/03 14:27:37;;;;;;;25.83;1.98;;;;;;;;;;5093728;28;20035;-76
2022/10/03 14:30:50;;;;;;;5.53;0.88;;;;;;;;;;5094499;28;20031;-79
2022/10/03 14:33:55;;;;;;;11.02;1.23;;;;;;;;;;5094441;28;20040;-79
2022/10/03 14:37:02;;;;;;;4.93;1.27;;;;;;;;;;5094569;28;20047;-79
2022/10/03 14:40:27;;;;;;;4.03;1.05;;;;;;;;;;5094647;28;20040;-78
2022/10/03 14:43:31;;;;;;;1.45;0.90;;;;;;;;;;5094760;28;20039;-75
2022/10/03 14:46:40;;;;;;;4.85;1.08;;;;;;;;;;5094466;28;20047;-73
2022/10/03 14:49:54;;;;;;;3.22;0.90;;;;;;;;;;5094491;28;20040;-79
2022/10/03 14:53:02;;;;;;;2.25;0.80;;;;;;;;;;5094461;28;20036;-77
2022/10/03 14:56:08;;;;;;;6.90;1.48;;;;;;;;;;5093339;28;20048;-72
2022/10/03 14:59:19;;;;;;;2.30;0.85;;;;;;;;;;5092776;28;20048;-74
2022/10/03 15:02:23;;;;;;;2.80;1.05;;;;;;;;;;5093516;28;20048;-75
2022/10/03 15:05:35;;;;;;;6.60;1.40;;;;;;;;;;5093510;28;20351;-72
2022/10/03 15:08:41;;;;;;;8.27;1.15;;;;;;;;;;5093657;28;20028;-76
2022/10/03 15:12:15;;;;;;;3.45;1.30;;;;;;;;;;5093785;28;20044;-70
2022/10/03 15:15:24;;;;;;;9.82;1.52;;;;;;;;;;5093097;28;20369;-73
2022/10/03 15:18:29;;;;;;;1.98;0.88;;;;;;;;;;5093650;28;20048;-71
2022/10/03 15:21:34;;;;;;;2.20;0.93;;;;;;;;;;5093631;28;20591;-76
2022/10/03 15:24:39;;;;;;;2.83;1.27;;;;;;;;;;5092443;28;20036;-74
2022/10/03 15:27:46;;;;;;;5.13;1.40;;;;;;;;;;5091101;28;20056;-73
2022/10/03 15:30:52;;;;;;;6.20;1.63;;;;;;;;;;5092740;28;20044;-73
2022/10/03 15:33:56;;;;;;;4.50;1.40;;;;;;;;;;5093404;28;20404;-71
2022/10/03 15:37:05;;;;;;;6.60;1.70;;;;;;;;;;5093078;28;20044;-73
2022/10/03 15:40:20;;;;;;;4.30;1.55;;;;;;;;;;5092816;28;20036;-73
2022/10/03 15:43:33;;;;;;;3.58;1.30;;;;;;;;;;5093151;28;20039;-74
2022/10/03 15:46:45;;;;;;;7.82;2.83;;;;;;;;;;5093261;28;20028;-72
2022/10/03 15:50:06;;;;;;;8.68;4.32;;;;;;;;;;5091974;28;20485;-72
2022/10/03 15:53:22;;;;;;;4.30;1.52;;;;;;;;;;5092971;28;20036;-72
2022/10/03 15:56:32;;;;;;;5.53;1.30;;;;;;;;;;5092835;28;20502;-73
2022/10/03 15:59:39;;;;;;;6.43;1.47;;;;;;;;;;5093009;28;20036;-72
2022/10/03 16:02:52;;;;;;;5.65;1.33;;;;;;;;;;5092010;28;20048;-81
2022/10/03 16:06:10;;;;;;;5.93;1.33;;;;;;;;;;5092612;28;20040;-77
2022/10/03 16:09:25;;;;;;;6.97;1.58;;;;;;;;;;5092843;28;20039;-78
2022/10/03 16:12:29;;;;;;;12.75;1.70;;;;;;;;;;5092875;28;20040;-75
2022/10/03 16:15:42;;;;;;;8.68;1.83;;;;;;;;;;5091938;28;20391;-77
2022/10/03 16:19:05;;;;;;;5.95;1.50;;;;;;;;;;5092446;28;20036;-79
2022/10/03 16:22:13;;;;;;;7.03;1.83;;;;;;;;;;5092553;28;20052;-76
2022/10/03 16:25:28;;;;;;;6.00;1.65;;;;;;;;;;5092605;28;20468;-75
2022/10/03 16:28:53;;;;;;;5.60;1.60;;;;;;;;;;5091880;28;20044;-79
2022/10/03 16:32:09;;;;;;;11.90;2.20;;;;;;;;;;5096380;28;20369;-78
2022/10/03 16:35:31;;;;;;;10.73;2.20;;;;;;;;;;5092486;28;20051;-81
2022/10/03 16:38:37;;;;;;;4.85;1.42;;;;;;;;;;5091431;28;20502;-76
2022/10/03 16:41:42;;;;;;;4.32;1.40;;;;;;;;;;5091061;28;20354;-74
2022/10/03 16:44:47;;;;;;;4.53;1.70;;;;;;;;;;5091710;28;20032;-75
2022/10/03 16:50:23;;;;;;;7.45;1.42;;;;;;;;;;5091725;28;20389;-74
2022/10/03 16:51:26;;;;;;;6.07;2.00;;;;;;;;;;5091705;28;20039;-75
2022/10/03 16:54:32;;;;;;;4.82;1.67;;;;;;;;;;5092003;28;20044;-73
2022/10/03 16:57:55;;;;;;;5.20;1.40;;;;;;;;;;5091788;28;20032;-76
2022/10/03 17:01:10;;;;;;;4.82;1.77;;;;;;;;;;5090712;28;20040;-74
2022/10/03 17:04:22;;;;;;;5.07;1.60;;;;;;;;;;5090778;28;20028;-75
2022/10/03 17:07:36;;;;;;;8.38;2.13;;;;;;;;;;5090534;28;20028;-74
2022/10/03 17:10:40;;;;;;;9.38;2.20;;;;;;;;;;5091458;28;20055;-74
2022/10/03 17:13:46;;;;;;;7.55;2.00;;;;;;;;;;5091317;28;20127;-75
2022/10/03 17:17:01;;;;;;;6.95;2.05;;;;;;;;;;5091696;28;20035;-77
2022/10/03 17:20:15;;;;;;;3.72;1.67;;;;;;;;;;5091086;28;20032;-75
2022/10/03 17:23:24;;;;;;;4.85;2.08;;;;;;;;;;5090780;28;20048;-76
2022/10/03 17:26:38;;;;;;;8.55;2.47;;;;;;;;;;5090912;28;20032;-75
2022/10/03 17:29:46;;;;;;;7.13;1.90;;;;;;;;;;5091344;28;20048;-76
2022/10/03 17:32:56;;;;;;;4.47;2.05;;;;;;;;;;5091334;28;20032;-74
2022/10/03 17:36:03;;;;;;;6.65;2.40;;;;;;;;;;5090697;28;20040;-77
2022/10/03 17:39:14;;;;;;;13.77;3.25;;;;;;;;;;5090132;28;20035;-74
2022/10/03 17:42:26;;;;;;;3.88;1.98;;;;;;;;;;5090917;28;20051;-73
2022/10/03 17:45:33;;;;;;;6.47;1.60;;;;;;;;;;5090906;28;20036;-75
2022/10/03 17:48:45;;;;;;;7.60;2.20;;;;;;;;;;5090546;28;20040;-73
2022/10/03 17:51:49;;;;;;;;;;;;;;;;;;5089757;28;20044;-78
2022/10/03 17:54:55;;;;;;;6.30;1.83;;;;;;;;;;5091094;28;20387;-73
2022/10/03 17:58:20;;;;;;;4.97;1.77;;;;;;;;;;5089808;28;20044;-71
2022/10/03 18:01:28;;;;;;;4.60;1.90;;;;;;;;;;5090152;28;20040;-72
2022/10/03 18:04:38;;;;;;;3.60;1.60;;;;;;;;;;5089383;28;20043;-71
2022/10/03 18:07:43;;;;;;;5.20;2.00;;;;;;;;;;5090406;28;20044;-72
2022/10/03 18:10:53;;;;;;;8.38;1.98;;;;;;;;;;5090347;28;20036;-73
2022/10/03 18:13:57;;;;;;;3.58;1.80;;;;;;;;;;5090440;28;20048;-73
2022/10/03 18:17:09;;;;;;;6.30;1.67;;;;;;;;;;5089600;28;20040;-73
2022/10/03 18:20:28;;;;;;;3.35;1.90;;;;;;;;;;5090163;28;20044;-71
2022/10/03 18:23:53;;;;;;;6.80;1.95;;;;;;;;;;5090838;28;20040;-71
2022/10/03 18:27:05;;;;;;;8.40;2.67;;;;;;;;;;5089688;28;20044;-72
2022/10/03 18:30:21;;;;;;;3.67;1.63;;;;;;;;;;5090593;28;20044;-72
2022/10/03 18:33:45;;;;;;;6.95;1.90;;;;;;;;;;5090084;28;20036;-73
2022/10/03 18:36:52;;;;;;;5.93;2.53;;;;;;;;;;5088723;28;20040;-71
2022/10/03 18:39:58;;;;;;;6.25;1.98;;;;;;;;;;5090487;28;20040;-73
2022/10/03 18:43:04;;;;;;;6.55;1.70;;;;;;;;;;5090039;28;20052;-74
2022/10/03 18:46:13;;;;;;;4.00;1.42;;;;;;;;;;5090160;28;20473;-72
2022/10/03 18:49:22;;;;;;;4.95;1.63;;;;;;;;;;5090450;28;20036;-71
2022/10/03 18:52:34;;;;;;;3.78;1.73;;;;;;;;;;5094085;28;20567;-73
2022/10/03 18:55:38;;;;;;;;;;;;;;;;;;5094224;28;20028;-72
2022/10/03 18:58:47;;;;;;;4.80;1.73;;;;;;;;;;5094251;28;20085;-73
2022/10/03 19:01:54;;;;;;;7.95;1.88;;;;;;;;;;5094003;28;20067;-72
2022/10/03 19:05:07;;;;;;;4.32;1.30;;;;;;;;;;5093835;28;20373;-72
2022/10/03 19:08:18;;;;;;;4.35;1.70;;;;;;;;;;5093163;28;20040;-72
2022/10/03 19:11:31;;;;;;;4.40;1.40;;;;;;;;;;5093897;28;20040;-73
2022/10/03 19:14:44;;;;;;;5.57;2.10;;;;;;;;;;5093847;28;20465;-73
2022/10/03 19:17:52;;;;;;;7.60;1.90;;;;;;;;;;5093718;28;20036;-72
2022/10/03 19:21:01;;;;;;;4.70;1.50;;;;;;;;;;5093662;28;20040;-72
2022/10/03 19:24:28;;;;;;;4.30;1.90;;;;;;;;;;5093327;28;20476;-73
2022/10/03 19:27:51;;;;;;;13.30;2.42;;;;;;;;;;5093199;28;20044;-71